Galileo — SX2040 — position and weather

sailwx.info

Track history (hours):
 
Tides and Currents Weather Stations Pressure Air Temp Water Temp Dewpoint Dewpoint Depression Visibility Wind Speed Wind Dir Waves Ship Positions

Galileo

Last reported at 2015-May-23 02:33 UTC. Time now 2015-May-23 02:44 UTC.
Position N 37°56' E 023°39'.

Length 40 m; draft 3 m.

Type: Passenger vessel. MMSI: 239299000.

Date/timePositionNaut miles runAvg speedWind from/ knotsBaromVisibWave heightAir tempDewpointWater temp
2015-May-23 02:33N 37°56' E 023°39'0 0.0
2015-May-23 01:34N 37°56' E 023°39'0 0.0
2015-May-23 00:33N 37°56' E 023°39'0 0.0
2015-May-22 23:33N 37°56' E 023°39'0 0.0
2015-May-22 22:33N 37°56' E 023°39'0 0.0
2015-May-22 21:33N 37°56' E 023°39'0 0.0
2015-May-22 20:33N 37°56' E 023°39'0 0.0
2015-May-22 19:33N 37°56' E 023°39'0 0.0
2015-May-22 18:33N 37°56' E 023°39'0 0.0
2015-May-22 17:33N 37°56' E 023°39'0 0.0
2015-May-22 16:33N 37°56' E 023°39'2 2.2
2015-May-22 15:33N 37°54' E 023°40'10 9.9
2015-May-22 14:32N 37°45' E 023°46'1210.0
2015-May-22 13:23N 37°38' E 023°57'37 4.2
2015-May-22 04:24N 37°31' E 024°44'910.0
2015-May-22 03:28N 37°31' E 024°56'5 5.2
2015-May-22 02:33N 37°27' E 024°57'0 0.0
2015-May-22 01:31N 37°27' E 024°57'0 0.0
2015-May-22 00:31N 37°27' E 024°57'0 0.0
2015-May-21 09:11N 37°27' E 024°57'2 3.0
2015-May-21 08:33N 37°25' E 024°59'0 0.0
2015-May-21 07:33N 37°25' E 024°59'1 0.5
2015-May-21 06:34N 37°25' E 024°59'10 9.7
2015-May-21 05:33N 37°27' E 025°11'7 6.7
2015-May-21 04:33N 37°28' E 025°20'0 0.0
2015-May-21 03:33N 37°28' E 025°20'0 0.0
2015-May-21 02:33N 37°28' E 025°20'0 0.0
2015-May-21 01:34N 37°28' E 025°20'0 0.0
2015-May-21 00:33N 37°28' E 025°20'0 0.0
2015-May-20 23:33N 37°28' E 025°20'0 0.0
2015-May-20 22:33N 37°28' E 025°20'0 0.0
2015-May-20 21:33N 37°28' E 025°20'0 0.0
2015-May-20 20:34N 37°28' E 025°20'0 0.0
2015-May-20 19:33N 37°28' E 025°20'0 0.0
2015-May-20 18:34N 37°28' E 025°20'0 0.0
2015-May-20 17:33N 37°28' E 025°20'0 0.0
2015-May-20 16:33N 37°28' E 025°20'0 0.0
2015-May-20 15:33N 37°28' E 025°20'0 0.0
2015-May-20 14:33N 37°28' E 025°20'0 0.0
2015-May-20 13:34N 37°28' E 025°20'0 0.0
2015-May-20 12:33N 37°28' E 025°20'0 0.0
2015-May-20 11:34N 37°28' E 025°20'0 0.0
2015-May-20 10:33N 37°28' E 025°20'0 0.0
2015-May-20 09:33N 37°28' E 025°20'0 0.0
2015-May-20 08:34N 37°28' E 025°20'0 0.0
2015-May-20 07:33N 37°28' E 025°20'0 0.0
2015-May-20 06:33N 37°28' E 025°20'0 0.1
2015-May-20 05:34N 37°28' E 025°20'8 8.3
2015-May-20 04:34N 37°20' E 025°16'1010.2
2015-May-20 03:34N 37°11' E 025°10'6 0.3
2015-May-19 09:24N 37°05' E 025°09'1 0.8
2015-May-19 08:33N 37°06' E 025°08'0 0.0
2015-May-19 07:33N 37°06' E 025°08'38 7.3
2015-May-19 02:18N 36°29' E 025°21'5 6.8
2015-May-19 01:32N 36°25' E 025°26'0 0.0
2015-May-19 00:32N 36°25' E 025°26'0 0.0
2015-May-18 23:33N 36°25' E 025°26'0 0.0
2015-May-18 22:32N 36°25' E 025°26'0 0.0
2015-May-18 21:33N 36°25' E 025°26'0 0.0
2015-May-18 20:33N 36°25' E 025°26'0 0.0
2015-May-18 19:32N 36°25' E 025°26'0 0.0
2015-May-18 18:32N 36°25' E 025°26'0 0.0
2015-May-18 17:33N 36°25' E 025°26'0 0.0
2015-May-18 16:33N 36°25' E 025°26'0 0.0
2015-May-18 15:32N 36°25' E 025°26'0 0.0
2015-May-18 14:33N 36°25' E 025°26'0 0.0
2015-May-18 13:32N 36°25' E 025°26'0 0.0
2015-May-18 12:33N 36°25' E 025°26'0 0.0
2015-May-18 11:32N 36°25' E 025°26'0 0.0
2015-May-18 10:32N 36°25' E 025°26'0 0.0
2015-May-18 09:33N 36°25' E 025°26'0 0.0
2015-May-18 08:32N 36°25' E 025°26'0 0.0
2015-May-18 07:33N 36°25' E 025°26'3 1.0
2015-May-18 04:33N 36°27' E 025°22'10 9.8
2015-May-18 03:33N 36°31' E 025°12'11 9.8
2015-May-18 02:25N 36°36' E 024°59'2 2.4
2015-May-18 01:33N 36°37' E 024°57'0 0.0
2015-May-18 00:33N 36°37' E 024°57'0 0.0
2015-May-17 23:33N 36°37' E 024°57'0 0.0
2015-May-17 22:32N 36°37' E 024°57'0 0.0
2015-May-17 21:33N 36°37' E 024°57'0 0.0
2015-May-17 20:28N 36°37' E 024°57'0 0.0
2015-May-17 19:25N 36°37' E 024°57'0 0.0
2015-May-17 18:13N 36°37' E 024°57'0 0.0
2015-May-17 17:33N 36°37' E 024°57'0 0.0
2015-May-17 16:24N 36°37' E 024°57'0 0.0
2015-May-17 15:32N 36°37' E 024°57'0 0.0
2015-May-17 14:33N 36°37' E 024°57'0 0.0
2015-May-17 13:32N 36°37' E 024°57'77 5.9
2015-May-17 00:27N 37°23' E 023°40'910.2
2015-May-16 23:33N 37°29' E 023°31'3 3.0
2015-May-16 22:33N 37°30' E 023°27'0 0.0
2015-May-16 21:33N 37°30' E 023°27'0 0.0
2015-May-16 20:33N 37°30' E 023°27'0 0.0
2015-May-16 19:33N 37°30' E 023°27'0 0.0
2015-May-16 18:33N 37°30' E 023°27'0 0.0
2015-May-16 17:33N 37°30' E 023°27'0 0.0
2015-May-16 16:33N 37°30' E 023°27'4 3.9
2015-May-16 15:24N 37°35' E 023°28'8 9.6
2015-May-16 14:32N 37°42' E 023°34'9 9.5
2015-May-16 13:33N 37°51' E 023°37'6 5.7
2015-May-16 12:33N 37°56' E 023°39'0 0.0
2015-May-16 11:33N 37°56' E 023°39'0 0.0
2015-May-16 10:33N 37°56' E 023°39'0 0.0
2015-May-16 09:33N 37°56' E 023°39'0 0.0
2015-May-16 08:33N 37°56' E 023°39'0 0.0
2015-May-16 07:33N 37°56' E 023°39'0 0.0
2015-May-16 06:33N 37°56' E 023°39'0 0.0
2015-May-16 05:33N 37°56' E 023°39'0 0.0
2015-May-16 04:33N 37°56' E 023°39'0 0.0
2015-May-16 03:33N 37°56' E 023°39'0 0.0
2015-May-16 02:33N 37°56' E 023°39'0 0.0
2015-May-16 01:33N 37°56' E 023°39'0 0.0
2015-May-16 00:33N 37°56' E 023°39'0 0.0
2015-May-15 23:33N 37°56' E 023°39'0 0.0
2015-May-15 22:33N 37°56' E 023°39'0 0.0
2015-May-15 21:33N 37°56' E 023°39'0 0.0
2015-May-15 20:33N 37°56' E 023°39'0 0.0
2015-May-15 19:33N 37°56' E 023°39'0 0.0
2015-May-15 18:33N 37°56' E 023°39'0 0.0
2015-May-15 17:33N 37°56' E 023°39'0 0.0
2015-May-15 16:33N 37°56' E 023°39'6 6.0
2015-May-15 15:33N 37°50' E 023°42'10 9.8
2015-May-15 14:33N 37°43' E 023°49'10 9.4
2015-May-15 13:32N 37°39' E 024°00'38 3.8
2015-May-15 03:33N 37°33' E 024°48'1010.0
2015-May-15 02:32N 37°31' E 025°01'10 9.9
2015-May-15 01:33N 37°29' E 025°13'6 5.7
2015-May-15 00:33N 37°28' E 025°20'0 0.0
2015-May-14 23:33N 37°28' E 025°20'0 0.0
2015-May-14 22:33N 37°28' E 025°20'0 0.0
2015-May-14 21:33N 37°28' E 025°20'0 0.0
2015-May-14 20:33N 37°28' E 025°20'0 0.0
2015-May-14 19:33N 37°28' E 025°20'0 0.0
2015-May-14 18:33N 37°28' E 025°20'0 0.0
2015-May-14 17:33N 37°28' E 025°20'0 0.0
2015-May-14 16:33N 37°28' E 025°20'0 0.0
2015-May-14 15:33N 37°28' E 025°20'0 0.0
2015-May-14 14:33N 37°28' E 025°20'0 0.0
2015-May-14 13:33N 37°28' E 025°20'0 0.0
2015-May-14 12:33N 37°28' E 025°20'0 0.0
2015-May-14 11:33N 37°28' E 025°20'0 0.0
2015-May-14 10:33N 37°28' E 025°20'0 0.0
2015-May-14 09:33N 37°28' E 025°20'0 0.0
2015-May-14 08:33N 37°28' E 025°20'0 0.0
2015-May-14 07:33N 37°28' E 025°20'0 0.0
2015-May-14 06:33N 37°28' E 025°20'0 0.0
2015-May-14 05:33N 37°28' E 025°20'2 1.9
2015-May-14 04:33N 37°28' E 025°17'10 9.8
2015-May-14 03:33N 37°27' E 025°05'7 6.5
2015-May-14 02:32N 37°26' E 024°57'0 0.0
2015-May-14 01:33N 37°26' E 024°57'0 0.0
2015-May-14 00:34N 37°26' E 024°57'0 0.0
2015-May-13 23:33N 37°26' E 024°57'0 0.0
2015-May-13 22:33N 37°26' E 024°57'0 0.0
2015-May-13 21:33N 37°26' E 024°57'0 0.0
2015-May-13 20:33N 37°26' E 024°57'0 0.0
2015-May-13 19:33N 37°26' E 024°57'0 0.0
2015-May-13 18:33N 37°26' E 024°57'0 0.0
2015-May-13 17:33N 37°26' E 024°57'0 0.0
2015-May-13 16:33N 37°26' E 024°57'0 0.0
2015-May-13 15:34N 37°26' E 024°57'0 0.0
2015-May-13 14:33N 37°26' E 024°57'0 0.0
2015-May-13 13:33N 37°26' E 024°57'0 0.0
2015-May-13 12:33N 37°26' E 024°57'0 0.0
2015-May-13 11:33N 37°26' E 024°57'0 0.0
2015-May-13 10:33N 37°26' E 024°57'0 0.0
2015-May-13 09:33N 37°26' E 024°57'0 0.0
2015-May-13 08:33N 37°26' E 024°57'0 0.0
2015-May-13 07:34N 37°26' E 024°57'0 0.0
2015-May-13 06:33N 37°26' E 024°57'0 0.0
2015-May-13 05:33N 37°26' E 024°57'0 0.0
2015-May-13 04:33N 37°26' E 024°57'0 0.0
2015-May-13 03:33N 37°26' E 024°57'0 0.0
2015-May-13 02:34N 37°26' E 024°57'  
Track history (hours):
 
Tides and Currents Weather Stations Pressure Air Temp Water Temp Dewpoint Dewpoint Depression Visibility Wind Speed Wind Dir Waves Ship Positions

Galileo

Last reported at 2015-May-23 02:33 UTC. Time now 2015-May-23 02:44 UTC.
Position N 37°56' E 023°39'.

Length 40 m; draft 3 m.

Type: Passenger vessel. MMSI: 239299000.

Date/timePositionNaut miles runAvg speedWind from/ knotsBaromVisibWave heightAir tempDewpointWater temp
2015-May-23 02:33N 37°56' E 023°39'0 0.0
2015-May-23 01:34N 37°56' E 023°39'0 0.0
2015-May-23 00:33N 37°56' E 023°39'0 0.0
2015-May-22 23:33N 37°56' E 023°39'0 0.0
2015-May-22 22:33N 37°56' E 023°39'0 0.0
2015-May-22 21:33N 37°56' E 023°39'0 0.0
2015-May-22 20:33N 37°56' E 023°39'0 0.0
2015-May-22 19:33N 37°56' E 023°39'0 0.0
2015-May-22 18:33N 37°56' E 023°39'0 0.0
2015-May-22 17:33N 37°56' E 023°39'0 0.0
2015-May-22 16:33N 37°56' E 023°39'2 2.2
2015-May-22 15:33N 37°54' E 023°40'10 9.9
2015-May-22 14:32N 37°45' E 023°46'1210.0
2015-May-22 13:23N 37°38' E 023°57'37 4.2
2015-May-22 04:24N 37°31' E 024°44'910.0
2015-May-22 03:28N 37°31' E 024°56'5 5.2
2015-May-22 02:33N 37°27' E 024°57'0 0.0
2015-May-22 01:31N 37°27' E 024°57'0 0.0
2015-May-22 00:31N 37°27' E 024°57'0 0.0
2015-May-21 09:11N 37°27' E 024°57'2 3.0
2015-May-21 08:33N 37°25' E 024°59'0 0.0
2015-May-21 07:33N 37°25' E 024°59'1 0.5
2015-May-21 06:34N 37°25' E 024°59'10 9.7
2015-May-21 05:33N 37°27' E 025°11'7 6.7
2015-May-21 04:33N 37°28' E 025°20'0 0.0
2015-May-21 03:33N 37°28' E 025°20'0 0.0
2015-May-21 02:33N 37°28' E 025°20'0 0.0
2015-May-21 01:34N 37°28' E 025°20'0 0.0
2015-May-21 00:33N 37°28' E 025°20'0 0.0
2015-May-20 23:33N 37°28' E 025°20'0 0.0
2015-May-20 22:33N 37°28' E 025°20'0 0.0
2015-May-20 21:33N 37°28' E 025°20'0 0.0
2015-May-20 20:34N 37°28' E 025°20'0 0.0
2015-May-20 19:33N 37°28' E 025°20'0 0.0
2015-May-20 18:34N 37°28' E 025°20'0 0.0
2015-May-20 17:33N 37°28' E 025°20'0 0.0
2015-May-20 16:33N 37°28' E 025°20'0 0.0
2015-May-20 15:33N 37°28' E 025°20'0 0.0
2015-May-20 14:33N 37°28' E 025°20'0 0.0
2015-May-20 13:34N 37°28' E 025°20'0 0.0
2015-May-20 12:33N 37°28' E 025°20'0 0.0
2015-May-20 11:34N 37°28' E 025°20'0 0.0
2015-May-20 10:33N 37°28' E 025°20'0 0.0
2015-May-20 09:33N 37°28' E 025°20'0 0.0
2015-May-20 08:34N 37°28' E 025°20'0 0.0
2015-May-20 07:33N 37°28' E 025°20'0 0.0
2015-May-20 06:33N 37°28' E 025°20'0 0.1
2015-May-20 05:34N 37°28' E 025°20'8 8.3
2015-May-20 04:34N 37°20' E 025°16'1010.2
2015-May-20 03:34N 37°11' E 025°10'6 0.3
2015-May-19 09:24N 37°05' E 025°09'1 0.8
2015-May-19 08:33N 37°06' E 025°08'0 0.0
2015-May-19 07:33N 37°06' E 025°08'38 7.3
2015-May-19 02:18N 36°29' E 025°21'5 6.8
2015-May-19 01:32N 36°25' E 025°26'0 0.0
2015-May-19 00:32N 36°25' E 025°26'0 0.0
2015-May-18 23:33N 36°25' E 025°26'0 0.0
2015-May-18 22:32N 36°25' E 025°26'0 0.0
2015-May-18 21:33N 36°25' E 025°26'0 0.0
2015-May-18 20:33N 36°25' E 025°26'0 0.0
2015-May-18 19:32N 36°25' E 025°26'0 0.0
2015-May-18 18:32N 36°25' E 025°26'0 0.0
2015-May-18 17:33N 36°25' E 025°26'0 0.0
2015-May-18 16:33N 36°25' E 025°26'0 0.0
2015-May-18 15:32N 36°25' E 025°26'0 0.0
2015-May-18 14:33N 36°25' E 025°26'0 0.0
2015-May-18 13:32N 36°25' E 025°26'0 0.0
2015-May-18 12:33N 36°25' E 025°26'0 0.0
2015-May-18 11:32N 36°25' E 025°26'0 0.0
2015-May-18 10:32N 36°25' E 025°26'0 0.0
2015-May-18 09:33N 36°25' E 025°26'0 0.0
2015-May-18 08:32N 36°25' E 025°26'0 0.0
2015-May-18 07:33N 36°25' E 025°26'3 1.0
2015-May-18 04:33N 36°27' E 025°22'10 9.8
2015-May-18 03:33N 36°31' E 025°12'11 9.8
2015-May-18 02:25N 36°36' E 024°59'2 2.4
2015-May-18 01:33N 36°37' E 024°57'0 0.0
2015-May-18 00:33N 36°37' E 024°57'0 0.0
2015-May-17 23:33N 36°37' E 024°57'0 0.0
2015-May-17 22:32N 36°37' E 024°57'0 0.0
2015-May-17 21:33N 36°37' E 024°57'0 0.0
2015-May-17 20:28N 36°37' E 024°57'0 0.0
2015-May-17 19:25N 36°37' E 024°57'0 0.0
2015-May-17 18:13N 36°37' E 024°57'0 0.0
2015-May-17 17:33N 36°37' E 024°57'0 0.0
2015-May-17 16:24N 36°37' E 024°57'0 0.0
2015-May-17 15:32N 36°37' E 024°57'0 0.0
2015-May-17 14:33N 36°37' E 024°57'0 0.0
2015-May-17 13:32N 36°37' E 024°57'77 5.9
2015-May-17 00:27N 37°23' E 023°40'910.2
2015-May-16 23:33N 37°29' E 023°31'3 3.0
2015-May-16 22:33N 37°30' E 023°27'0 0.0
2015-May-16 21:33N 37°30' E 023°27'0 0.0
2015-May-16 20:33N 37°30' E 023°27'0 0.0
2015-May-16 19:33N 37°30' E 023°27'0 0.0
2015-May-16 18:33N 37°30' E 023°27'0 0.0
2015-May-16 17:33N 37°30' E 023°27'0 0.0
2015-May-16 16:33N 37°30' E 023°27'4 3.9
2015-May-16 15:24N 37°35' E 023°28'8 9.6
2015-May-16 14:32N 37°42' E 023°34'9 9.5
2015-May-16 13:33N 37°51' E 023°37'6 5.7
2015-May-16 12:33N 37°56' E 023°39'0 0.0
2015-May-16 11:33N 37°56' E 023°39'0 0.0
2015-May-16 10:33N 37°56' E 023°39'0 0.0
2015-May-16 09:33N 37°56' E 023°39'0 0.0
2015-May-16 08:33N 37°56' E 023°39'0 0.0
2015-May-16 07:33N 37°56' E 023°39'0 0.0
2015-May-16 06:33N 37°56' E 023°39'0 0.0
2015-May-16 05:33N 37°56' E 023°39'0 0.0
2015-May-16 04:33N 37°56' E 023°39'0 0.0
2015-May-16 03:33N 37°56' E 023°39'0 0.0
2015-May-16 02:33N 37°56' E 023°39'0 0.0
2015-May-16 01:33N 37°56' E 023°39'0 0.0
2015-May-16 00:33N 37°56' E 023°39'0 0.0
2015-May-15 23:33N 37°56' E 023°39'0 0.0
2015-May-15 22:33N 37°56' E 023°39'0 0.0
2015-May-15 21:33N 37°56' E 023°39'0 0.0
2015-May-15 20:33N 37°56' E 023°39'0 0.0
2015-May-15 19:33N 37°56' E 023°39'0 0.0
2015-May-15 18:33N 37°56' E 023°39'0 0.0
2015-May-15 17:33N 37°56' E 023°39'0 0.0
2015-May-15 16:33N 37°56' E 023°39'6 6.0
2015-May-15 15:33N 37°50' E 023°42'10 9.8
2015-May-15 14:33N 37°43' E 023°49'10 9.4
2015-May-15 13:32N 37°39' E 024°00'38 3.8
2015-May-15 03:33N 37°33' E 024°48'1010.0
2015-May-15 02:32N 37°31' E 025°01'10 9.9
2015-May-15 01:33N 37°29' E 025°13'6 5.7
2015-May-15 00:33N 37°28' E 025°20'0 0.0
2015-May-14 23:33N 37°28' E 025°20'0 0.0
2015-May-14 22:33N 37°28' E 025°20'0 0.0
2015-May-14 21:33N 37°28' E 025°20'0 0.0
2015-May-14 20:33N 37°28' E 025°20'0 0.0
2015-May-14 19:33N 37°28' E 025°20'0 0.0
2015-May-14 18:33N 37°28' E 025°20'0 0.0
2015-May-14 17:33N 37°28' E 025°20'0 0.0
2015-May-14 16:33N 37°28' E 025°20'0 0.0
2015-May-14 15:33N 37°28' E 025°20'0 0.0
2015-May-14 14:33N 37°28' E 025°20'0 0.0
2015-May-14 13:33N 37°28' E 025°20'0 0.0
2015-May-14 12:33N 37°28' E 025°20'0 0.0
2015-May-14 11:33N 37°28' E 025°20'0 0.0
2015-May-14 10:33N 37°28' E 025°20'0 0.0
2015-May-14 09:33N 37°28' E 025°20'0 0.0
2015-May-14 08:33N 37°28' E 025°20'0 0.0
2015-May-14 07:33N 37°28' E 025°20'0 0.0
2015-May-14 06:33N 37°28' E 025°20'0 0.0
2015-May-14 05:33N 37°28' E 025°20'2 1.9
2015-May-14 04:33N 37°28' E 025°17'10 9.8
2015-May-14 03:33N 37°27' E 025°05'7 6.5
2015-May-14 02:32N 37°26' E 024°57'0 0.0
2015-May-14 01:33N 37°26' E 024°57'0 0.0
2015-May-14 00:34N 37°26' E 024°57'0 0.0
2015-May-13 23:33N 37°26' E 024°57'0 0.0
2015-May-13 22:33N 37°26' E 024°57'0 0.0
2015-May-13 21:33N 37°26' E 024°57'0 0.0
2015-May-13 20:33N 37°26' E 024°57'0 0.0
2015-May-13 19:33N 37°26' E 024°57'0 0.0
2015-May-13 18:33N 37°26' E 024°57'0 0.0
2015-May-13 17:33N 37°26' E 024°57'0 0.0
2015-May-13 16:33N 37°26' E 024°57'0 0.0
2015-May-13 15:34N 37°26' E 024°57'0 0.0
2015-May-13 14:33N 37°26' E 024°57'0 0.0
2015-May-13 13:33N 37°26' E 024°57'0 0.0
2015-May-13 12:33N 37°26' E 024°57'0 0.0
2015-May-13 11:33N 37°26' E 024°57'0 0.0
2015-May-13 10:33N 37°26' E 024°57'0 0.0
2015-May-13 09:33N 37°26' E 024°57'0 0.0
2015-May-13 08:33N 37°26' E 024°57'0 0.0
2015-May-13 07:34N 37°26' E 024°57'0 0.0
2015-May-13 06:33N 37°26' E 024°57'0 0.0
2015-May-13 05:33N 37°26' E 024°57'0 0.0
2015-May-13 04:33N 37°26' E 024°57'0 0.0
2015-May-13 03:33N 37°26' E 024°57'0 0.0
2015-May-13 02:34N 37°26' E 024°57'  

Dump ship's entire track history